sensor_id;sensor_type;location;lat;lon;timestamp;P1;durP1;ratioP1;P2;durP2;ratioP2
40951;SDS011;26682;51.660;19.338;2024-01-16T00:01:42;5.40;;;2.60;;
40951;SDS011;26682;51.660;19.338;2024-01-16T00:04:24;3.83;;;2.38;;
40951;SDS011;26682;51.660;19.338;2024-01-16T00:07:08;3.38;;;2.20;;
40951;SDS011;26682;51.660;19.338;2024-01-16T00:09:51;5.18;;;2.78;;
40951;SDS011;26682;51.660;19.338;2024-01-16T00:12:35;5.40;;;3.00;;
40951;SDS011;26682;51.660;19.338;2024-01-16T00:15:17;3.78;;;2.40;;
40951;SDS011;26682;51.660;19.338;2024-01-16T00:18:00;4.80;;;2.67;;
40951;SDS011;26682;51.660;19.338;2024-01-16T00:20:42;5.88;;;2.70;;
40951;SDS011;26682;51.660;19.338;2024-01-16T00:23:25;6.88;;;2.70;;
40951;SDS011;26682;51.660;19.338;2024-01-16T00:26:08;4.93;;;2.13;;
40951;SDS011;26682;51.660;19.338;2024-01-16T00:29:00;6.35;;;2.42;;
40951;SDS011;26682;51.660;19.338;2024-01-16T00:31:43;4.95;;;2.30;;
40951;SDS011;26682;51.660;19.338;2024-01-16T00:34:25;7.47;;;2.50;;
40951;SDS011;26682;51.660;19.338;2024-01-16T00:37:08;6.68;;;2.35;;
40951;SDS011;26682;51.660;19.338;2024-01-16T00:39:50;3.72;;;2.05;;
40951;SDS011;26682;51.660;19.338;2024-01-16T00:42:33;6.07;;;2.35;;
40951;SDS011;26682;51.660;19.338;2024-01-16T00:45:15;5.93;;;2.45;;
40951;SDS011;26682;51.660;19.338;2024-01-16T00:47:58;4.38;;;2.25;;
40951;SDS011;26682;51.660;19.338;2024-01-16T00:50:41;3.55;;;2.35;;
40951;SDS011;26682;51.660;19.338;2024-01-16T00:53:24;4.18;;;2.20;;
40951;SDS011;26682;51.660;19.338;2024-01-16T00:56:07;4.43;;;2.75;;
40951;SDS011;26682;51.660;19.338;2024-01-16T00:58:50;6.50;;;2.60;;
40951;SDS011;26682;51.660;19.338;2024-01-16T01:01:33;6.22;;;2.40;;
40951;SDS011;26682;51.660;19.338;2024-01-16T01:04:18;3.47;;;2.15;;
40951;SDS011;26682;51.660;19.338;2024-01-16T01:07:01;3.55;;;1.88;;
40951;SDS011;26682;51.660;19.338;2024-01-16T01:09:43;4.38;;;1.98;;
40951;SDS011;26682;51.660;19.338;2024-01-16T01:12:26;3.25;;;2.00;;
40951;SDS011;26682;51.660;19.338;2024-01-16T01:15:08;4.10;;;1.75;;
40951;SDS011;26682;51.660;19.338;2024-01-16T01:17:52;4.00;;;1.95;;
40951;SDS011;26682;51.660;19.338;2024-01-16T01:20:36;4.50;;;1.80;;
40951;SDS011;26682;51.660;19.338;2024-01-16T01:23:18;4.38;;;2.08;;
40951;SDS011;26682;51.660;19.338;2024-01-16T01:26:00;4.40;;;2.00;;
40951;SDS011;26682;51.660;19.338;2024-01-16T01:28:43;3.88;;;1.73;;
40951;SDS011;26682;51.660;19.338;2024-01-16T01:31:26;2.75;;;1.33;;
40951;SDS011;26682;51.660;19.338;2024-01-16T01:34:08;3.22;;;1.55;;
40951;SDS011;26682;51.660;19.338;2024-01-16T01:36:50;2.75;;;1.50;;
40951;SDS011;26682;51.660;19.338;2024-01-16T01:39:33;3.60;;;1.48;;
40951;SDS011;26682;51.660;19.338;2024-01-16T01:42:15;3.10;;;1.35;;
40951;SDS011;26682;51.660;19.338;2024-01-16T01:44:58;3.08;;;1.20;;
40951;SDS011;26682;51.660;19.338;2024-01-16T01:47:41;2.03;;;1.17;;
40951;SDS011;26682;51.660;19.338;2024-01-16T01:50:27;3.25;;;1.58;;
40951;SDS011;26682;51.660;19.338;2024-01-16T01:53:09;4.32;;;1.13;;
40951;SDS011;26682;51.660;19.338;2024-01-16T01:55:52;4.60;;;1.38;;
40951;SDS011;26682;51.660;19.338;2024-01-16T01:58:35;2.22;;;1.30;;
40951;SDS011;26682;51.660;19.338;2024-01-16T02:01:20;3.40;;;1.65;;
40951;SDS011;26682;51.660;19.338;2024-01-16T02:04:03;2.55;;;1.35;;
40951;SDS011;26682;51.660;19.338;2024-01-16T02:06:48;2.38;;;1.20;;
40951;SDS011;26682;51.660;19.338;2024-01-16T02:09:31;3.80;;;1.58;;
40951;SDS011;26682;51.660;19.338;2024-01-16T02:12:14;3.83;;;1.30;;
40951;SDS011;26682;51.660;19.338;2024-01-16T02:14:56;4.40;;;1.50;;
40951;SDS011;26682;51.660;19.338;2024-01-16T02:17:38;2.35;;;1.60;;
40951;SDS011;26682;51.660;19.338;2024-01-16T02:20:21;2.45;;;1.58;;
40951;SDS011;26682;51.660;19.338;2024-01-16T02:23:03;7.35;;;1.73;;
40951;SDS011;26682;51.660;19.338;2024-01-16T02:25:47;1.92;;;1.40;;
40951;SDS011;26682;51.660;19.338;2024-01-16T02:28:30;3.30;;;1.42;;
40951;SDS011;26682;51.660;19.338;2024-01-16T02:31:12;3.15;;;1.75;;
40951;SDS011;26682;51.660;19.338;2024-01-16T02:33:55;2.50;;;1.63;;
40951;SDS011;26682;51.660;19.338;2024-01-16T02:36:37;3.05;;;1.70;;
40951;SDS011;26682;51.660;19.338;2024-01-16T02:39:20;2.38;;;1.58;;
40951;SDS011;26682;51.660;19.338;2024-01-16T02:42:02;2.78;;;1.52;;
40951;SDS011;26682;51.660;19.338;2024-01-16T02:44:45;2.20;;;1.58;;
40951;SDS011;26682;51.660;19.338;2024-01-16T02:47:28;2.28;;;1.42;;
40951;SDS011;26682;51.660;19.338;2024-01-16T02:50:11;2.78;;;1.35;;
40951;SDS011;26682;51.660;19.338;2024-01-16T02:52:53;2.95;;;1.67;;
40951;SDS011;26682;51.660;19.338;2024-01-16T02:55:36;3.65;;;1.50;;
40951;SDS011;26682;51.660;19.338;2024-01-16T02:58:18;4.53;;;1.77;;
40951;SDS011;26682;51.660;19.338;2024-01-16T03:01:01;4.95;;;1.50;;
40951;SDS011;26682;51.660;19.338;2024-01-16T03:03:43;3.55;;;1.40;;
40951;SDS011;26682;51.660;19.338;2024-01-16T03:06:26;6.18;;;1.40;;
40951;SDS011;26682;51.660;19.338;2024-01-16T03:09:10;3.28;;;1.67;;
40951;SDS011;26682;51.660;19.338;2024-01-16T03:11:54;5.57;;;1.75;;
40951;SDS011;26682;51.660;19.338;2024-01-16T03:14:36;4.72;;;2.08;;
40951;SDS011;26682;51.660;19.338;2024-01-16T03:17:21;6.78;;;2.83;;
40951;SDS011;26682;51.660;19.338;2024-01-16T03:20:03;4.18;;;2.05;;
40951;SDS011;26682;51.660;19.338;2024-01-16T03:22:46;4.72;;;2.58;;
40951;SDS011;26682;51.660;19.338;2024-01-16T03:25:28;8.30;;;3.58;;
40951;SDS011;26682;51.660;19.338;2024-01-16T03:28:11;8.77;;;2.90;;
40951;SDS011;26682;51.660;19.338;2024-01-16T03:30:53;11.05;;;2.95;;
40951;SDS011;26682;51.660;19.338;2024-01-16T03:33:36;15.65;;;3.95;;
40951;SDS011;26682;51.660;19.338;2024-01-16T03:36:24;14.48;;;4.78;;
40951;SDS011;26682;51.660;19.338;2024-01-16T03:39:06;16.95;;;4.68;;
40951;SDS011;26682;51.660;19.338;2024-01-16T03:41:50;7.22;;;3.08;;
40951;SDS011;26682;51.660;19.338;2024-01-16T03:44:33;6.13;;;2.55;;
40951;SDS011;26682;51.660;19.338;2024-01-16T03:47:21;5.15;;;1.92;;
40951;SDS011;26682;51.660;19.338;2024-01-16T03:50:04;4.55;;;2.13;;
40951;SDS011;26682;51.660;19.338;2024-01-16T03:52:46;7.95;;;2.40;;
40951;SDS011;26682;51.660;19.338;2024-01-16T03:55:29;9.52;;;2.80;;
40951;SDS011;26682;51.660;19.338;2024-01-16T03:58:13;6.75;;;2.92;;
40951;SDS011;26682;51.660;19.338;2024-01-16T04:00:55;5.10;;;2.70;;
40951;SDS011;26682;51.660;19.338;2024-01-16T04:03:38;5.68;;;2.25;;
40951;SDS011;26682;51.660;19.338;2024-01-16T04:06:21;2.53;;;1.70;;
40951;SDS011;26682;51.660;19.338;2024-01-16T04:09:06;4.45;;;1.90;;
40951;SDS011;26682;51.660;19.338;2024-01-16T04:11:50;3.47;;;1.80;;
40951;SDS011;26682;51.660;19.338;2024-01-16T04:14:32;3.72;;;1.83;;
40951;SDS011;26682;51.660;19.338;2024-01-16T04:17:15;5.25;;;2.67;;
40951;SDS011;26682;51.660;19.338;2024-01-16T04:19:57;6.30;;;2.55;;
40951;SDS011;26682;51.660;19.338;2024-01-16T04:22:40;6.75;;;2.95;;
40951;SDS011;26682;51.660;19.338;2024-01-16T04:25:22;5.32;;;2.28;;
40951;SDS011;26682;51.660;19.338;2024-01-16T04:28:06;5.05;;;2.22;;
40951;SDS011;26682;51.660;19.338;2024-01-16T04:30:48;4.30;;;2.38;;
40951;SDS011;26682;51.660;19.338;2024-01-16T04:33:31;5.47;;;2.50;;
40951;SDS011;26682;51.660;19.338;2024-01-16T04:36:13;4.75;;;2.30;;
40951;SDS011;26682;51.660;19.338;2024-01-16T04:38:56;8.27;;;2.92;;
40951;SDS011;26682;51.660;19.338;2024-01-16T04:41:41;13.52;;;3.90;;
40951;SDS011;26682;51.660;19.338;2024-01-16T04:44:24;14.15;;;4.40;;
40951;SDS011;26682;51.660;19.338;2024-01-16T04:47:06;12.13;;;3.47;;
40951;SDS011;26682;51.660;19.338;2024-01-16T04:49:49;14.15;;;3.85;;
40951;SDS011;26682;51.660;19.338;2024-01-16T04:52:31;11.27;;;3.35;;
40951;SDS011;26682;51.660;19.338;2024-01-16T04:55:14;11.40;;;3.15;;
40951;SDS011;26682;51.660;19.338;2024-01-16T04:57:56;7.97;;;2.78;;
40951;SDS011;26682;51.660;19.338;2024-01-16T05:00:39;8.93;;;3.17;;
40951;SDS011;26682;51.660;19.338;2024-01-16T05:03:22;12.18;;;4.32;;
40951;SDS011;26682;51.660;19.338;2024-01-16T05:06:04;11.77;;;3.97;;
40951;SDS011;26682;51.660;19.338;2024-01-16T05:08:53;8.18;;;2.35;;
40951;SDS011;26682;51.660;19.338;2024-01-16T05:11:36;9.98;;;2.92;;
40951;SDS011;26682;51.660;19.338;2024-01-16T05:14:18;4.03;;;2.03;;
40951;SDS011;26682;51.660;19.338;2024-01-16T05:17:01;5.93;;;3.10;;
40951;SDS011;26682;51.660;19.338;2024-01-16T05:19:44;8.20;;;3.75;;
40951;SDS011;26682;51.660;19.338;2024-01-16T05:22:26;14.98;;;4.82;;
40951;SDS011;26682;51.660;19.338;2024-01-16T05:25:09;17.60;;;6.07;;
40951;SDS011;26682;51.660;19.338;2024-01-16T05:27:51;18.42;;;6.72;;
40951;SDS011;26682;51.660;19.338;2024-01-16T05:30:34;14.90;;;5.10;;
40951;SDS011;26682;51.660;19.338;2024-01-16T05:33:17;13.20;;;4.80;;
40951;SDS011;26682;51.660;19.338;2024-01-16T05:35:59;16.75;;;4.85;;
40951;SDS011;26682;51.660;19.338;2024-01-16T05:38:42;14.75;;;5.20;;
40951;SDS011;26682;51.660;19.338;2024-01-16T05:41:26;16.60;;;4.90;;
40951;SDS011;26682;51.660;19.338;2024-01-16T05:44:08;14.73;;;5.97;;
40951;SDS011;26682;51.660;19.338;2024-01-16T05:46:51;20.95;;;6.40;;
40951;SDS011;26682;51.660;19.338;2024-01-16T05:49:33;20.38;;;6.90;;
40951;SDS011;26682;51.660;19.338;2024-01-16T05:52:16;21.92;;;6.20;;
40951;SDS011;26682;51.660;19.338;2024-01-16T05:54:58;13.23;;;5.53;;
40951;SDS011;26682;51.660;19.338;2024-01-16T05:57:41;16.05;;;5.63;;
40951;SDS011;26682;51.660;19.338;2024-01-16T06:00:25;10.88;;;4.35;;
40951;SDS011;26682;51.660;19.338;2024-01-16T06:03:07;7.88;;;3.65;;
40951;SDS011;26682;51.660;19.338;2024-01-16T06:05:50;6.68;;;3.30;;
40951;SDS011;26682;51.660;19.338;2024-01-16T06:08:32;9.50;;;3.72;;
40951;SDS011;26682;51.660;19.338;2024-01-16T06:11:15;10.57;;;3.83;;
40951;SDS011;26682;51.660;19.338;2024-01-16T06:13:58;10.30;;;4.07;;
40951;SDS011;26682;51.660;19.338;2024-01-16T06:16:41;7.13;;;3.50;;
40951;SDS011;26682;51.660;19.338;2024-01-16T06:19:23;7.75;;;3.97;;
40951;SDS011;26682;51.660;19.338;2024-01-16T06:22:06;11.23;;;4.20;;
40951;SDS011;26682;51.660;19.338;2024-01-16T06:24:50;9.88;;;4.75;;
40951;SDS011;26682;51.660;19.338;2024-01-16T06:27:33;8.13;;;4.60;;
40951;SDS011;26682;51.660;19.338;2024-01-16T06:30:15;11.18;;;4.95;;
40951;SDS011;26682;51.660;19.338;2024-01-16T06:32:59;9.55;;;4.93;;
40951;SDS011;26682;51.660;19.338;2024-01-16T06:35:41;10.32;;;5.47;;
40951;SDS011;26682;51.660;19.338;2024-01-16T06:38:24;13.48;;;6.47;;
40951;SDS011;26682;51.660;19.338;2024-01-16T06:41:07;12.85;;;6.70;;
40951;SDS011;26682;51.660;19.338;2024-01-16T06:43:49;13.73;;;6.72;;
40951;SDS011;26682;51.660;19.338;2024-01-16T06:46:32;12.82;;;6.45;;
40951;SDS011;26682;51.660;19.338;2024-01-16T06:49:15;16.95;;;8.93;;
40951;SDS011;26682;51.660;19.338;2024-01-16T06:51:57;16.00;;;7.93;;
40951;SDS011;26682;51.660;19.338;2024-01-16T06:54:40;12.77;;;6.63;;
40951;SDS011;26682;51.660;19.338;2024-01-16T06:57:22;14.52;;;7.28;;
40951;SDS011;26682;51.660;19.338;2024-01-16T07:00:05;14.27;;;6.40;;
40951;SDS011;26682;51.660;19.338;2024-01-16T07:02:49;22.80;;;10.88;;
40951;SDS011;26682;51.660;19.338;2024-01-16T07:05:33;23.15;;;10.35;;
40951;SDS011;26682;51.660;19.338;2024-01-16T07:08:15;22.77;;;9.55;;
40951;SDS011;26682;51.660;19.338;2024-01-16T07:10:58;16.85;;;8.10;;
40951;SDS011;26682;51.660;19.338;2024-01-16T07:13:41;16.35;;;6.18;;
40951;SDS011;26682;51.660;19.338;2024-01-16T07:16:23;15.30;;;7.15;;
40951;SDS011;26682;51.660;19.338;2024-01-16T07:19:06;13.30;;;6.28;;
40951;SDS011;26682;51.660;19.338;2024-01-16T07:21:49;24.05;;;9.00;;
40951;SDS011;26682;51.660;19.338;2024-01-16T07:24:31;20.48;;;8.63;;
40951;SDS011;26682;51.660;19.338;2024-01-16T07:27:14;24.83;;;11.23;;
40951;SDS011;26682;51.660;19.338;2024-01-16T07:29:56;18.35;;;11.20;;
40951;SDS011;26682;51.660;19.338;2024-01-16T07:32:39;17.38;;;10.40;;
40951;SDS011;26682;51.660;19.338;2024-01-16T07:35:22;17.67;;;11.25;;
40951;SDS011;26682;51.660;19.338;2024-01-16T07:38:05;25.20;;;13.43;;
40951;SDS011;26682;51.660;19.338;2024-01-16T07:40:47;26.60;;;13.45;;
40951;SDS011;26682;51.660;19.338;2024-01-16T07:43:30;23.45;;;12.85;;
40951;SDS011;26682;51.660;19.338;2024-01-16T07:46:13;26.25;;;13.68;;
40951;SDS011;26682;51.660;19.338;2024-01-16T07:48:55;31.67;;;15.10;;
40951;SDS011;26682;51.660;19.338;2024-01-16T07:51:38;35.67;;;16.70;;
40951;SDS011;26682;51.660;19.338;2024-01-16T07:54:20;38.83;;;18.27;;
40951;SDS011;26682;51.660;19.338;2024-01-16T07:57:03;31.50;;;15.25;;
40951;SDS011;26682;51.660;19.338;2024-01-16T07:59:46;23.65;;;12.98;;
40951;SDS011;26682;51.660;19.338;2024-01-16T08:02:32;24.80;;;11.35;;
40951;SDS011;26682;51.660;19.338;2024-01-16T08:05:16;23.60;;;11.40;;
40951;SDS011;26682;51.660;19.338;2024-01-16T08:07:58;25.23;;;11.02;;
40951;SDS011;26682;51.660;19.338;2024-01-16T08:10:41;23.20;;;11.07;;
40951;SDS011;26682;51.660;19.338;2024-01-16T08:13:24;28.50;;;12.57;;
40951;SDS011;26682;51.660;19.338;2024-01-16T08:16:07;28.75;;;12.90;;
40951;SDS011;26682;51.660;19.338;2024-01-16T08:18:52;28.67;;;12.70;;
40951;SDS011;26682;51.660;19.338;2024-01-16T08:21:35;27.63;;;11.55;;
40951;SDS011;26682;51.660;19.338;2024-01-16T08:24:18;22.80;;;9.73;;
40951;SDS011;26682;51.660;19.338;2024-01-16T08:27:00;19.67;;;7.65;;
40951;SDS011;26682;51.660;19.338;2024-01-16T08:29:43;13.63;;;5.72;;
40951;SDS011;26682;51.660;19.338;2024-01-16T08:32:26;10.23;;;5.20;;
40951;SDS011;26682;51.660;19.338;2024-01-16T08:35:08;11.95;;;5.72;;
40951;SDS011;26682;51.660;19.338;2024-01-16T08:37:51;14.00;;;6.53;;
40951;SDS011;26682;51.660;19.338;2024-01-16T08:40:33;29.38;;;11.40;;
40951;SDS011;26682;51.660;19.338;2024-01-16T08:43:16;12.50;;;5.80;;
40951;SDS011;26682;51.660;19.338;2024-01-16T08:45:58;16.23;;;6.72;;
40951;SDS011;26682;51.660;19.338;2024-01-16T08:48:41;14.57;;;7.53;;
40951;SDS011;26682;51.660;19.338;2024-01-16T08:51:24;17.98;;;6.88;;
40951;SDS011;26682;51.660;19.338;2024-01-16T08:54:08;8.60;;;3.95;;
40951;SDS011;26682;51.660;19.338;2024-01-16T08:56:50;9.45;;;4.65;;
40951;SDS011;26682;51.660;19.338;2024-01-16T08:59:33;7.80;;;3.78;;
40951;SDS011;26682;51.660;19.338;2024-01-16T09:02:15;10.48;;;4.03;;
40951;SDS011;26682;51.660;19.338;2024-01-16T09:04:58;8.60;;;3.80;;
40951;SDS011;26682;51.660;19.338;2024-01-16T09:07:40;12.15;;;5.28;;
40951;SDS011;26682;51.660;19.338;2024-01-16T09:10:23;9.13;;;4.63;;
40951;SDS011;26682;51.660;19.338;2024-01-16T09:13:05;28.45;;;9.75;;
40951;SDS011;26682;51.660;19.338;2024-01-16T09:15:49;10.95;;;4.78;;
40951;SDS011;26682;51.660;19.338;2024-01-16T09:18:32;9.60;;;2.83;;
40951;SDS011;26682;51.660;19.338;2024-01-16T09:21:15;7.80;;;3.45;;
40951;SDS011;26682;51.660;19.338;2024-01-16T09:23:57;15.73;;;5.78;;
40951;SDS011;26682;51.660;19.338;2024-01-16T09:26:40;8.40;;;4.07;;
40951;SDS011;26682;51.660;19.338;2024-01-16T09:29:23;8.57;;;3.53;;
40951;SDS011;26682;51.660;19.338;2024-01-16T09:32:06;11.00;;;4.45;;
40951;SDS011;26682;51.660;19.338;2024-01-16T09:34:48;18.40;;;6.63;;
40951;SDS011;26682;51.660;19.338;2024-01-16T09:37:31;13.50;;;5.95;;
40951;SDS011;26682;51.660;19.338;2024-01-16T09:40:15;9.32;;;4.38;;
40951;SDS011;26682;51.660;19.338;2024-01-16T09:42:58;24.90;;;8.60;;
40951;SDS011;26682;51.660;19.338;2024-01-16T09:45:41;13.18;;;5.65;;
40951;SDS011;26682;51.660;19.338;2024-01-16T09:48:24;49.05;;;15.57;;
40951;SDS011;26682;51.660;19.338;2024-01-16T09:51:07;34.42;;;11.70;;
40951;SDS011;26682;51.660;19.338;2024-01-16T09:53:49;24.67;;;9.27;;
40951;SDS011;26682;51.660;19.338;2024-01-16T09:56:33;15.63;;;6.95;;
40951;SDS011;26682;51.660;19.338;2024-01-16T09:59:18;16.67;;;6.20;;
40951;SDS011;26682;51.660;19.338;2024-01-16T10:02:02;16.55;;;6.40;;
40951;SDS011;26682;51.660;19.338;2024-01-16T10:04:48;30.58;;;10.05;;
40951;SDS011;26682;51.660;19.338;2024-01-16T10:07:31;32.33;;;12.20;;
40951;SDS011;26682;51.660;19.338;2024-01-16T10:10:15;17.90;;;7.43;;
40951;SDS011;26682;51.660;19.338;2024-01-16T10:13:11;16.30;;;6.45;;
40951;SDS011;26682;51.660;19.338;2024-01-16T10:15:56;18.17;;;7.15;;
40951;SDS011;26682;51.660;19.338;2024-01-16T10:18:39;11.77;;;6.25;;
40951;SDS011;26682;51.660;19.338;2024-01-16T10:21:22;17.73;;;6.90;;
40951;SDS011;26682;51.660;19.338;2024-01-16T10:24:11;11.13;;;4.65;;
40951;SDS011;26682;51.660;19.338;2024-01-16T10:27:00;16.00;;;6.97;;
40951;SDS011;26682;51.660;19.338;2024-01-16T10:29:54;12.20;;;5.35;;
40951;SDS011;26682;51.660;19.338;2024-01-16T10:32:41;13.48;;;4.70;;
40951;SDS011;26682;51.660;19.338;2024-01-16T10:35:25;9.15;;;4.28;;
40951;SDS011;26682;51.660;19.338;2024-01-16T10:38:07;8.52;;;4.50;;
40951;SDS011;26682;51.660;19.338;2024-01-16T10:41:03;8.38;;;4.85;;
40951;SDS011;26682;51.660;19.338;2024-01-16T10:44:05;16.67;;;6.63;;
40951;SDS011;26682;51.660;19.338;2024-01-16T10:46:49;17.10;;;7.50;;
40951;SDS011;26682;51.660;19.338;2024-01-16T10:49:32;12.23;;;6.35;;
40951;SDS011;26682;51.660;19.338;2024-01-16T10:52:25;20.80;;;9.07;;
40951;SDS011;26682;51.660;19.338;2024-01-16T10:55:10;19.27;;;8.02;;
40951;SDS011;26682;51.660;19.338;2024-01-16T10:57:54;14.90;;;6.00;;
40951;SDS011;26682;51.660;19.338;2024-01-16T11:00:38;15.57;;;7.97;;
40951;SDS011;26682;51.660;19.338;2024-01-16T11:03:33;23.58;;;11.38;;
40951;SDS011;26682;51.660;19.338;2024-01-16T11:06:20;12.25;;;5.22;;
40951;SDS011;26682;51.660;19.338;2024-01-16T11:09:04;16.25;;;7.88;;
40951;SDS011;26682;51.660;19.338;2024-01-16T11:11:49;9.90;;;5.63;;
40951;SDS011;26682;51.660;19.338;2024-01-16T11:14:36;11.82;;;6.05;;
40951;SDS011;26682;51.660;19.338;2024-01-16T11:17:19;11.80;;;6.05;;
40951;SDS011;26682;51.660;19.338;2024-01-16T11:20:02;9.38;;;5.50;;
40951;SDS011;26682;51.660;19.338;2024-01-16T11:23:12;14.07;;;7.32;;
40951;SDS011;26682;51.660;19.338;2024-01-16T11:25:55;11.05;;;5.60;;
40951;SDS011;26682;51.660;19.338;2024-01-16T11:28:38;10.90;;;5.45;;
40951;SDS011;26682;51.660;19.338;2024-01-16T11:31:27;8.27;;;4.63;;
40951;SDS011;26682;51.660;19.338;2024-01-16T11:34:09;10.30;;;4.57;;
40951;SDS011;26682;51.660;19.338;2024-01-16T11:36:52;8.95;;;4.70;;
40951;SDS011;26682;51.660;19.338;2024-01-16T11:39:38;8.48;;;4.38;;
40951;SDS011;26682;51.660;19.338;2024-01-16T11:42:25;9.52;;;4.32;;
40951;SDS011;26682;51.660;19.338;2024-01-16T11:48:11;20.15;;;8.43;;
40951;SDS011;26682;51.660;19.338;2024-01-16T11:50:55;21.55;;;9.77;;
40951;SDS011;26682;51.660;19.338;2024-01-16T11:53:37;15.95;;;7.90;;
40951;SDS011;26682;51.660;19.338;2024-01-16T11:56:42;21.33;;;9.27;;
40951;SDS011;26682;51.660;19.338;2024-01-16T12:02:56;20.13;;;10.02;;
40951;SDS011;26682;51.660;19.338;2024-01-16T12:05:39;16.55;;;7.85;;
40951;SDS011;26682;51.660;19.338;2024-01-16T12:08:22;14.38;;;7.18;;
40951;SDS011;26682;51.660;19.338;2024-01-16T12:11:04;22.33;;;9.68;;
40951;SDS011;26682;51.660;19.338;2024-01-16T12:14:09;15.93;;;7.85;;
40951;SDS011;26682;51.660;19.338;2024-01-16T12:16:51;16.58;;;7.85;;
40951;SDS011;26682;51.660;19.338;2024-01-16T12:19:33;13.55;;;7.25;;
40951;SDS011;26682;51.660;19.338;2024-01-16T12:22:16;13.82;;;6.75;;
40951;SDS011;26682;51.660;19.338;2024-01-16T12:25:04;15.73;;;8.57;;
40951;SDS011;26682;51.660;19.338;2024-01-16T12:27:54;14.63;;;8.68;;
40951;SDS011;26682;51.660;19.338;2024-01-16T12:30:41;15.27;;;8.38;;
40951;SDS011;26682;51.660;19.338;2024-01-16T12:33:31;12.52;;;6.53;;
40951;SDS011;26682;51.660;19.338;2024-01-16T12:36:14;11.73;;;5.88;;
40951;SDS011;26682;51.660;19.338;2024-01-16T12:38:57;13.95;;;6.60;;
40951;SDS011;26682;51.660;19.338;2024-01-16T12:41:41;20.65;;;8.73;;
40951;SDS011;26682;51.660;19.338;2024-01-16T12:44:27;15.07;;;7.40;;
40951;SDS011;26682;51.660;19.338;2024-01-16T12:47:10;23.75;;;10.20;;
40951;SDS011;26682;51.660;19.338;2024-01-16T12:49:57;21.48;;;9.18;;
40951;SDS011;26682;51.660;19.338;2024-01-16T12:52:39;17.33;;;7.75;;
40951;SDS011;26682;51.660;19.338;2024-01-16T12:55:23;17.00;;;7.68;;
40951;SDS011;26682;51.660;19.338;2024-01-16T12:58:16;26.52;;;10.52;;
40951;SDS011;26682;51.660;19.338;2024-01-16T13:01:04;25.38;;;10.07;;
40951;SDS011;26682;51.660;19.338;2024-01-16T13:04:20;25.95;;;10.45;;
40951;SDS011;26682;51.660;19.338;2024-01-16T13:07:03;36.50;;;13.15;;
40951;SDS011;26682;51.660;19.338;2024-01-16T13:09:47;28.10;;;12.18;;
40951;SDS011;26682;51.660;19.338;2024-01-16T13:12:29;30.15;;;12.68;;
40951;SDS011;26682;51.660;19.338;2024-01-16T13:15:15;34.40;;;12.57;;
40951;SDS011;26682;51.660;19.338;2024-01-16T13:17:59;17.73;;;8.20;;
40951;SDS011;26682;51.660;19.338;2024-01-16T13:20:42;14.90;;;7.30;;
40951;SDS011;26682;51.660;19.338;2024-01-16T13:23:24;12.05;;;6.60;;
40951;SDS011;26682;51.660;19.338;2024-01-16T13:26:08;12.43;;;6.07;;
40951;SDS011;26682;51.660;19.338;2024-01-16T13:28:50;13.02;;;6.93;;
40951;SDS011;26682;51.660;19.338;2024-01-16T13:31:33;20.38;;;9.65;;
40951;SDS011;26682;51.660;19.338;2024-01-16T13:34:15;37.35;;;16.45;;
40951;SDS011;26682;51.660;19.338;2024-01-16T13:37:00;21.55;;;10.45;;
40951;SDS011;26682;51.660;19.338;2024-01-16T13:39:48;24.13;;;10.52;;
40951;SDS011;26682;51.660;19.338;2024-01-16T13:42:30;27.40;;;13.40;;
40951;SDS011;26682;51.660;19.338;2024-01-16T13:45:13;29.38;;;15.60;;
40951;SDS011;26682;51.660;19.338;2024-01-16T13:47:56;66.97;;;23.95;;
40951;SDS011;26682;51.660;19.338;2024-01-16T13:50:39;53.20;;;21.33;;
40951;SDS011;26682;51.660;19.338;2024-01-16T13:53:22;26.83;;;12.88;;
40951;SDS011;26682;51.660;19.338;2024-01-16T13:56:04;18.48;;;10.90;;
40951;SDS011;26682;51.660;19.338;2024-01-16T13:58:48;25.90;;;11.25;;
40951;SDS011;26682;51.660;19.338;2024-01-16T14:01:30;17.10;;;9.13;;
40951;SDS011;26682;51.660;19.338;2024-01-16T14:04:15;14.90;;;9.23;;
40951;SDS011;26682;51.660;19.338;2024-01-16T14:06:57;25.33;;;11.10;;
40951;SDS011;26682;51.660;19.338;2024-01-16T14:09:54;25.40;;;13.38;;
40951;SDS011;26682;51.660;19.338;2024-01-16T14:12:37;30.85;;;15.20;;
40951;SDS011;26682;51.660;19.338;2024-01-16T14:15:21;28.17;;;15.65;;
40951;SDS011;26682;51.660;19.338;2024-01-16T14:18:05;25.95;;;14.18;;
40951;SDS011;26682;51.660;19.338;2024-01-16T14:20:48;23.90;;;11.75;;
40951;SDS011;26682;51.660;19.338;2024-01-16T14:23:31;23.13;;;11.30;;
40951;SDS011;26682;51.660;19.338;2024-01-16T14:26:14;34.35;;;14.15;;
40951;SDS011;26682;51.660;19.338;2024-01-16T14:28:57;33.58;;;15.98;;
40951;SDS011;26682;51.660;19.338;2024-01-16T14:31:40;36.67;;;18.40;;
40951;SDS011;26682;51.660;19.338;2024-01-16T14:34:25;31.42;;;15.73;;
40951;SDS011;26682;51.660;19.338;2024-01-16T14:37:11;36.03;;;14.95;;
40951;SDS011;26682;51.660;19.338;2024-01-16T14:39:59;29.77;;;14.77;;
40951;SDS011;26682;51.660;19.338;2024-01-16T14:43:04;31.30;;;14.90;;
40951;SDS011;26682;51.660;19.338;2024-01-16T14:45:47;29.67;;;14.63;;
40951;SDS011;26682;51.660;19.338;2024-01-16T14:48:30;30.92;;;16.00;;
40951;SDS011;26682;51.660;19.338;2024-01-16T14:51:12;38.88;;;17.80;;
40951;SDS011;26682;51.660;19.338;2024-01-16T14:53:55;33.13;;;17.40;;
40951;SDS011;26682;51.660;19.338;2024-01-16T14:56:38;49.88;;;20.52;;
40951;SDS011;26682;51.660;19.338;2024-01-16T14:59:21;49.53;;;20.42;;
40951;SDS011;26682;51.660;19.338;2024-01-16T15:02:04;30.13;;;14.95;;
40951;SDS011;26682;51.660;19.338;2024-01-16T15:04:55;31.35;;;14.55;;
40951;SDS011;26682;51.660;19.338;2024-01-16T15:07:37;26.90;;;13.52;;
40951;SDS011;26682;51.660;19.338;2024-01-16T15:10:20;24.20;;;13.88;;
40951;SDS011;26682;51.660;19.338;2024-01-16T15:13:02;30.60;;;15.35;;
40951;SDS011;26682;51.660;19.338;2024-01-16T15:15:45;37.97;;;18.67;;
40951;SDS011;26682;51.660;19.338;2024-01-16T15:18:27;41.28;;;18.77;;
40951;SDS011;26682;51.660;19.338;2024-01-16T15:21:10;45.65;;;22.85;;
40951;SDS011;26682;51.660;19.338;2024-01-16T15:23:53;123.10;;;57.83;;
40951;SDS011;26682;51.660;19.338;2024-01-16T15:26:36;86.90;;;40.75;;
40951;SDS011;26682;51.660;19.338;2024-01-16T15:29:18;65.28;;;32.25;;
40951;SDS011;26682;51.660;19.338;2024-01-16T15:32:01;87.43;;;43.42;;
40951;SDS011;26682;51.660;19.338;2024-01-16T15:34:44;104.10;;;53.78;;
40951;SDS011;26682;51.660;19.338;2024-01-16T15:37:27;99.32;;;51.50;;
40951;SDS011;26682;51.660;19.338;2024-01-16T15:40:12;87.22;;;46.28;;
40951;SDS011;26682;51.660;19.338;2024-01-16T15:43:00;90.82;;;48.28;;
40951;SDS011;26682;51.660;19.338;2024-01-16T15:45:42;76.32;;;38.78;;
40951;SDS011;26682;51.660;19.338;2024-01-16T15:48:25;66.65;;;33.50;;
40951;SDS011;26682;51.660;19.338;2024-01-16T15:51:15;60.22;;;31.70;;
40951;SDS011;26682;51.660;19.338;2024-01-16T15:53:58;77.38;;;39.08;;
40951;SDS011;26682;51.660;19.338;2024-01-16T15:56:41;78.85;;;42.15;;
40951;SDS011;26682;51.660;19.338;2024-01-16T15:59:25;82.25;;;43.03;;
40951;SDS011;26682;51.660;19.338;2024-01-16T16:02:07;71.88;;;40.47;;
40951;SDS011;26682;51.660;19.338;2024-01-16T16:04:50;69.43;;;37.67;;
40951;SDS011;26682;51.660;19.338;2024-01-16T16:07:32;72.28;;;36.03;;